sensor_id;sensor_type;location;lat;lon;timestamp;pressure;altitude;pressure_sealevel;temperature
60936;BMP280;46804;51.786;19.520;2022-10-24T00:01:28;98406.34;;;10.16
60936;BMP280;46804;51.786;19.520;2022-10-24T00:05:29;98399.19;;;10.16
60936;BMP280;46804;51.786;19.520;2022-10-24T00:09:30;98390.75;;;10.24
60936;BMP280;46804;51.786;19.520;2022-10-24T00:13:30;98385.16;;;10.20
60936;BMP280;46804;51.786;19.520;2022-10-24T00:17:31;98375.00;;;10.17
60936;BMP280;46804;51.786;19.520;2022-10-24T00:21:32;98372.88;;;10.19
60936;BMP280;46804;51.786;19.520;2022-10-24T00:25:32;98390.47;;;10.20
60936;BMP280;46804;51.786;19.520;2022-10-24T00:29:33;98406.91;;;10.17
60936;BMP280;46804;51.786;19.520;2022-10-24T00:33:34;98396.44;;;10.06
60936;BMP280;46804;51.786;19.520;2022-10-24T00:37:34;98390.75;;;9.98
60936;BMP280;46804;51.786;19.520;2022-10-24T00:41:38;98396.66;;;10.05
60936;BMP280;46804;51.786;19.520;2022-10-24T00:46:00;98388.75;;;10.10
60936;BMP280;46804;51.786;19.520;2022-10-24T00:50:09;98373.91;;;10.14
60936;BMP280;46804;51.786;19.520;2022-10-24T00:54:12;98377.63;;;10.13
60936;BMP280;46804;51.786;19.520;2022-10-24T00:58:14;98372.84;;;10.15
60936;BMP280;46804;51.786;19.520;2022-10-24T01:02:14;98368.84;;;10.12
60936;BMP280;46804;51.786;19.520;2022-10-24T01:06:26;98353.44;;;10.14
60936;BMP280;46804;51.786;19.520;2022-10-24T01:19:31;98353.84;;;10.32
60936;BMP280;46804;51.786;19.520;2022-10-24T01:28:02;98358.94;;;10.34
60936;BMP280;46804;51.786;19.520;2022-10-24T01:36:15;98338.91;;;10.26
60936;BMP280;46804;51.786;19.520;2022-10-24T01:40:23;98334.09;;;10.18
60936;BMP280;46804;51.786;19.520;2022-10-24T01:44:32;98329.88;;;10.22
60936;BMP280;46804;51.786;19.520;2022-10-24T01:48:39;98326.13;;;10.23
60936;BMP280;46804;51.786;19.520;2022-10-24T01:52:41;98317.84;;;10.20
60936;BMP280;46804;51.786;19.520;2022-10-24T01:56:43;98308.53;;;10.17
60936;BMP280;46804;51.786;19.520;2022-10-24T02:00:45;98301.63;;;10.17
60936;BMP280;46804;51.786;19.520;2022-10-24T02:04:52;98293.09;;;10.15
60936;BMP280;46804;51.786;19.520;2022-10-24T02:08:57;98295.78;;;10.19
60936;BMP280;46804;51.786;19.520;2022-10-24T02:13:08;98288.09;;;10.18
60936;BMP280;46804;51.786;19.520;2022-10-24T02:17:10;98285.16;;;10.19
60936;BMP280;46804;51.786;19.520;2022-10-24T02:25:22;98277.19;;;10.19
60936;BMP280;46804;51.786;19.520;2022-10-24T02:29:28;98269.19;;;10.19
60936;BMP280;46804;51.786;19.520;2022-10-24T02:33:29;98260.75;;;10.22
60936;BMP280;46804;51.786;19.520;2022-10-24T02:37:33;98257.31;;;10.27
60936;BMP280;46804;51.786;19.520;2022-10-24T02:41:36;98267.13;;;10.26
60936;BMP280;46804;51.786;19.520;2022-10-24T02:45:39;98269.78;;;10.26
60936;BMP280;46804;51.786;19.520;2022-10-24T02:49:40;98261.28;;;10.24
60936;BMP280;46804;51.786;19.520;2022-10-24T02:53:41;98260.75;;;10.22
60936;BMP280;46804;51.786;19.520;2022-10-24T02:57:41;98241.06;;;10.23
60936;BMP280;46804;51.786;19.520;2022-10-24T03:01:42;98242.16;;;10.27
60936;BMP280;46804;51.786;19.520;2022-10-24T03:05:42;98241.69;;;10.35
60936;BMP280;46804;51.786;19.520;2022-10-24T03:09:43;98235.28;;;10.31
60936;BMP280;46804;51.786;19.520;2022-10-24T03:13:43;98238.69;;;10.27
60936;BMP280;46804;51.786;19.520;2022-10-24T03:17:44;98235.22;;;10.26
60936;BMP280;46804;51.786;19.520;2022-10-24T03:21:48;98232.53;;;10.21
60936;BMP280;46804;51.786;19.520;2022-10-24T03:25:49;98231.75;;;10.21
60936;BMP280;46804;51.786;19.520;2022-10-24T03:29:49;98228.84;;;10.27
60936;BMP280;46804;51.786;19.520;2022-10-24T03:33:50;98212.66;;;10.29
60936;BMP280;46804;51.786;19.520;2022-10-24T03:37:51;98199.59;;;10.27
60936;BMP280;46804;51.786;19.520;2022-10-24T03:41:51;98179.38;;;10.26
60936;BMP280;46804;51.786;19.520;2022-10-24T03:45:52;98167.69;;;10.27
60936;BMP280;46804;51.786;19.520;2022-10-24T03:49:52;98165.28;;;10.26
60936;BMP280;46804;51.786;19.520;2022-10-24T03:53:53;98157.31;;;10.26
60936;BMP280;46804;51.786;19.520;2022-10-24T03:57:53;98144.31;;;10.29
60936;BMP280;46804;51.786;19.520;2022-10-24T04:01:54;98145.91;;;10.30
60936;BMP280;46804;51.786;19.520;2022-10-24T04:05:55;98156.84;;;10.34
60936;BMP280;46804;51.786;19.520;2022-10-24T04:09:55;98171.47;;;10.36
60936;BMP280;46804;51.786;19.520;2022-10-24T04:13:57;98188.50;;;10.40
60936;BMP280;46804;51.786;19.520;2022-10-24T04:17:57;98173.09;;;10.42
60936;BMP280;46804;51.786;19.520;2022-10-24T04:21:58;98164.56;;;10.40
60936;BMP280;46804;51.786;19.520;2022-10-24T04:25:58;98173.91;;;10.43
60936;BMP280;46804;51.786;19.520;2022-10-24T04:29:59;98162.47;;;10.42
60936;BMP280;46804;51.786;19.520;2022-10-24T04:34:00;98176.31;;;10.44
60936;BMP280;46804;51.786;19.520;2022-10-24T04:38:01;98180.03;;;10.48
60936;BMP280;46804;51.786;19.520;2022-10-24T04:42:01;98189.63;;;10.54
60936;BMP280;46804;51.786;19.520;2022-10-24T04:46:02;98193.91;;;10.55
60936;BMP280;46804;51.786;19.520;2022-10-24T04:50:03;98186.44;;;10.57
60936;BMP280;46804;51.786;19.520;2022-10-24T04:54:05;98181.66;;;10.59
60936;BMP280;46804;51.786;19.520;2022-10-24T04:58:06;98186.72;;;10.60
60936;BMP280;46804;51.786;19.520;2022-10-24T05:02:06;98184.31;;;10.59
60936;BMP280;46804;51.786;19.520;2022-10-24T05:06:07;98176.63;;;10.57
60936;BMP280;46804;51.786;19.520;2022-10-24T05:10:07;98185.41;;;10.63
60936;BMP280;46804;51.786;19.520;2022-10-24T05:14:08;98178.53;;;10.67
60936;BMP280;46804;51.786;19.520;2022-10-24T05:18:09;98177.19;;;10.69
60936;BMP280;46804;51.786;19.520;2022-10-24T05:22:09;98176.94;;;10.71
60936;BMP280;46804;51.786;19.520;2022-10-24T05:26:10;98175.38;;;10.75
60936;BMP280;46804;51.786;19.520;2022-10-24T05:30:11;98174.31;;;10.81
60936;BMP280;46804;51.786;19.520;2022-10-24T05:34:12;98160.19;;;10.85
60936;BMP280;46804;51.786;19.520;2022-10-24T05:38:12;98162.91;;;10.90
60936;BMP280;46804;51.786;19.520;2022-10-24T05:42:13;98163.16;;;10.93
60936;BMP280;46804;51.786;19.520;2022-10-24T05:46:13;98181.00;;;10.98
60936;BMP280;46804;51.786;19.520;2022-10-24T05:50:15;98182.63;;;11.09
60936;BMP280;46804;51.786;19.520;2022-10-24T05:54:15;98180.25;;;11.07
60936;BMP280;46804;51.786;19.520;2022-10-24T05:58:16;98192.78;;;11.12
60936;BMP280;46804;51.786;19.520;2022-10-24T06:02:20;98182.38;;;11.15
60936;BMP280;46804;51.786;19.520;2022-10-24T06:06:21;98199.44;;;11.19
60936;BMP280;46804;51.786;19.520;2022-10-24T06:10:23;98198.09;;;11.26
60936;BMP280;46804;51.786;19.520;2022-10-24T06:14:24;98200.50;;;11.33
60936;BMP280;46804;51.786;19.520;2022-10-24T06:18:24;98193.34;;;11.38
60936;BMP280;46804;51.786;19.520;2022-10-24T06:22:25;98206.16;;;11.46
60936;BMP280;46804;51.786;19.520;2022-10-24T06:26:28;98217.38;;;11.53
60936;BMP280;46804;51.786;19.520;2022-10-24T06:30:29;98212.03;;;11.63
60936;BMP280;46804;51.786;19.520;2022-10-24T06:34:29;98206.44;;;11.64
60936;BMP280;46804;51.786;19.520;2022-10-24T06:38:31;98219.22;;;11.67
60936;BMP280;46804;51.786;19.520;2022-10-24T06:42:32;98205.94;;;11.77
60936;BMP280;46804;51.786;19.520;2022-10-24T06:46:32;98206.19;;;11.76
60936;BMP280;46804;51.786;19.520;2022-10-24T06:50:33;98209.66;;;11.81
60936;BMP280;46804;51.786;19.520;2022-10-24T06:54:34;98217.09;;;11.89
60936;BMP280;46804;51.786;19.520;2022-10-24T06:58:36;98211.25;;;11.97
60936;BMP280;46804;51.786;19.520;2022-10-24T07:02:37;98200.31;;;11.98
60936;BMP280;46804;51.786;19.520;2022-10-24T07:06:38;98216.84;;;12.05
60936;BMP280;46804;51.786;19.520;2022-10-24T07:10:38;98213.91;;;12.12
60936;BMP280;46804;51.786;19.520;2022-10-24T07:14:39;98224.03;;;12.24
60936;BMP280;46804;51.786;19.520;2022-10-24T07:18:39;98227.75;;;12.33
60936;BMP280;46804;51.786;19.520;2022-10-24T07:22:41;98231.97;;;12.39
60936;BMP280;46804;51.786;19.520;2022-10-24T07:26:41;98237.53;;;12.53
60936;BMP280;46804;51.786;19.520;2022-10-24T07:30:43;98241.25;;;12.66
60936;BMP280;46804;51.786;19.520;2022-10-24T07:34:43;98242.84;;;12.77
60936;BMP280;46804;51.786;19.520;2022-10-24T07:38:45;98232.66;;;12.89
60936;BMP280;46804;51.786;19.520;2022-10-24T07:42:46;98243.03;;;12.95
60936;BMP280;46804;51.786;19.520;2022-10-24T07:46:47;98245.69;;;13.00
60936;BMP280;46804;51.786;19.520;2022-10-24T07:50:48;98238.41;;;13.16
60936;BMP280;46804;51.786;19.520;2022-10-24T07:54:51;98232.25;;;13.15
60936;BMP280;46804;51.786;19.520;2022-10-24T07:58:52;98236.00;;;13.19
60936;BMP280;46804;51.786;19.520;2022-10-24T08:02:54;98233.28;;;13.24
60936;BMP280;46804;51.786;19.520;2022-10-24T08:06:55;98226.81;;;13.35
60936;BMP280;46804;51.786;19.520;2022-10-24T08:10:56;98232.09;;;13.45
60936;BMP280;46804;51.786;19.520;2022-10-24T08:14:56;98220.28;;;13.56
60936;BMP280;46804;51.786;19.520;2022-10-24T08:18:57;98225.84;;;13.59
60936;BMP280;46804;51.786;19.520;2022-10-24T08:22:58;98210.63;;;13.59
60936;BMP280;46804;51.786;19.520;2022-10-24T08:26:58;98209.44;;;13.75
60936;BMP280;46804;51.786;19.520;2022-10-24T08:31:05;98203.41;;;13.93
60936;BMP280;46804;51.786;19.520;2022-10-24T08:35:06;98203.81;;;14.10
60936;BMP280;46804;51.786;19.520;2022-10-24T08:39:07;98208.69;;;14.31
60936;BMP280;46804;51.786;19.520;2022-10-24T08:43:09;98215.38;;;14.28
60936;BMP280;46804;51.786;19.520;2022-10-24T08:51:37;98199.78;;;14.35
60936;BMP280;46804;51.786;19.520;2022-10-24T08:55:55;98215.44;;;14.52
60936;BMP280;46804;51.786;19.520;2022-10-24T09:00:24;98207.16;;;14.48
60936;BMP280;46804;51.786;19.520;2022-10-24T09:04:28;98217.84;;;14.53
60936;BMP280;46804;51.786;19.520;2022-10-24T09:08:39;98228.53;;;14.53
60936;BMP280;46804;51.786;19.520;2022-10-24T09:12:42;98232.22;;;14.57
60936;BMP280;46804;51.786;19.520;2022-10-24T09:16:45;98241.63;;;14.55
60936;BMP280;46804;51.786;19.520;2022-10-24T09:20:48;98232.75;;;14.59
60936;BMP280;46804;51.786;19.520;2022-10-24T09:24:57;98240.41;;;14.70
60936;BMP280;46804;51.786;19.520;2022-10-24T09:28:58;98223.28;;;14.90
60936;BMP280;46804;51.786;19.520;2022-10-24T09:33:10;98231.78;;;14.96
60936;BMP280;46804;51.786;19.520;2022-10-24T09:37:36;98220.34;;;15.09
60936;BMP280;46804;51.786;19.520;2022-10-24T09:41:37;98224.25;;;15.22
60936;BMP280;46804;51.786;19.520;2022-10-24T09:45:44;98217.47;;;15.47
60936;BMP280;46804;51.786;19.520;2022-10-24T09:49:45;98217.31;;;15.39
60936;BMP280;46804;51.786;19.520;2022-10-24T09:53:59;98219.84;;;15.49
60936;BMP280;46804;51.786;19.520;2022-10-24T09:58:00;98203.78;;;15.49
60936;BMP280;46804;51.786;19.520;2022-10-24T10:06:23;98206.94;;;15.69
60936;BMP280;46804;51.786;19.520;2022-10-24T10:10:30;98212.13;;;15.79
60936;BMP280;46804;51.786;19.520;2022-10-24T10:14:39;98226.34;;;15.79
60936;BMP280;46804;51.786;19.520;2022-10-24T10:18:43;98223.78;;;15.88
60936;BMP280;46804;51.786;19.520;2022-10-24T10:22:45;98238.75;;;16.07
60936;BMP280;46804;51.786;19.520;2022-10-24T10:26:46;98244.44;;;16.24
60936;BMP280;46804;51.786;19.520;2022-10-24T10:30:52;98253.22;;;16.29
60936;BMP280;46804;51.786;19.520;2022-10-24T10:35:01;98239.19;;;16.45
60936;BMP280;46804;51.786;19.520;2022-10-24T10:39:23;98241.88;;;16.45
60936;BMP280;46804;51.786;19.520;2022-10-24T10:43:36;98209.56;;;16.77
60936;BMP280;46804;51.786;19.520;2022-10-24T10:52:12;98210.78;;;17.24
60936;BMP280;46804;51.786;19.520;2022-10-24T11:05:15;97978.09;;;19.76
60936;BMP280;46804;51.786;19.520;2022-10-24T11:09:36;97866.88;;;20.80
60936;BMP280;46804;51.786;19.520;2022-10-24T11:14:11;97887.97;;;20.66
60936;BMP280;46804;51.786;19.520;2022-10-24T11:18:25;97820.19;;;21.03
60936;BMP280;46804;51.786;19.520;2022-10-24T11:22:35;97858.34;;;21.34
60936;BMP280;46804;51.786;19.520;2022-10-24T11:27:12;97727.28;;;22.33
60936;BMP280;46804;51.786;19.520;2022-10-24T11:31:18;97702.94;;;22.09
60936;BMP280;46804;51.786;19.520;2022-10-24T11:35:29;97737.94;;;22.14
60936;BMP280;46804;51.786;19.520;2022-10-24T11:39:43;97708.16;;;22.41
60936;BMP280;46804;51.786;19.520;2022-10-24T11:43:46;97823.75;;;21.98
60936;BMP280;46804;51.786;19.520;2022-10-24T11:51:57;97720.59;;;22.57
60936;BMP280;46804;51.786;19.520;2022-10-24T11:56:22;97625.34;;;23.20
60936;BMP280;46804;51.786;19.520;2022-10-24T12:00:46;97557.19;;;23.78
60936;BMP280;46804;51.786;19.520;2022-10-24T12:14:34;97546.72;;;23.98
60936;BMP280;46804;51.786;19.520;2022-10-24T12:18:44;97598.19;;;23.73
60936;BMP280;46804;51.786;19.520;2022-10-24T12:22:46;97778.69;;;22.45
60936;BMP280;46804;51.786;19.520;2022-10-24T12:26:57;97759.88;;;22.90
60936;BMP280;46804;51.786;19.520;2022-10-24T12:39:46;97655.47;;;23.00
60936;BMP280;46804;51.786;19.520;2022-10-24T12:43:48;97558.84;;;23.82
60936;BMP280;46804;51.786;19.520;2022-10-24T12:51:51;97709.97;;;22.80
60936;BMP280;46804;51.786;19.520;2022-10-24T12:59:57;97641.16;;;23.33
60936;BMP280;46804;51.786;19.520;2022-10-24T13:04:22;97732.66;;;23.17
60936;BMP280;46804;51.786;19.520;2022-10-24T13:25:46;97629.88;;;24.03
60936;BMP280;46804;51.786;19.520;2022-10-24T13:33:50;97799.34;;;23.18
60936;BMP280;46804;51.786;19.520;2022-10-24T13:37:52;97789.97;;;23.31
60936;BMP280;46804;51.786;19.520;2022-10-24T13:42:02;97991.25;;;22.44
60936;BMP280;46804;51.786;19.520;2022-10-24T13:46:08;98127.69;;;21.72
60936;BMP280;46804;51.786;19.520;2022-10-24T13:50:16;98259.66;;;20.89
60936;BMP280;46804;51.786;19.520;2022-10-24T13:54:21;98258.25;;;20.75
60936;BMP280;46804;51.786;19.520;2022-10-24T13:58:24;98290.91;;;20.61
60936;BMP280;46804;51.786;19.520;2022-10-24T14:02:30;98322.09;;;20.34
60936;BMP280;46804;51.786;19.520;2022-10-24T14:06:32;98368.00;;;20.08
60936;BMP280;46804;51.786;19.520;2022-10-24T14:10:33;98423.78;;;19.74
60936;BMP280;46804;51.786;19.520;2022-10-24T14:14:38;98401.63;;;19.47
60936;BMP280;46804;51.786;19.520;2022-10-24T14:18:43;98348.16;;;19.66
60936;BMP280;46804;51.786;19.520;2022-10-24T14:22:44;98314.50;;;19.55
60936;BMP280;46804;51.786;19.520;2022-10-24T14:26:45;98319.97;;;19.25
60936;BMP280;46804;51.786;19.520;2022-10-24T14:30:59;98266.44;;;19.10
60936;BMP280;46804;51.786;19.520;2022-10-24T14:35:00;98207.00;;;19.24
60936;BMP280;46804;51.786;19.520;2022-10-24T14:39:02;98209.50;;;19.04
60936;BMP280;46804;51.786;19.520;2022-10-24T14:43:03;98214.09;;;18.73
60936;BMP280;46804;51.786;19.520;2022-10-24T14:47:29;98210.59;;;18.64
60936;BMP280;46804;51.786;19.520;2022-10-24T14:51:31;98185.16;;;18.57
60936;BMP280;46804;51.786;19.520;2022-10-24T14:55:36;98198.69;;;18.35
60936;BMP280;46804;51.786;19.520;2022-10-24T14:59:37;98190.94;;;18.34
60936;BMP280;46804;51.786;19.520;2022-10-24T15:03:52;98198.00;;;18.21
60936;BMP280;46804;51.786;19.520;2022-10-24T15:08:17;98199.31;;;17.89
60936;BMP280;46804;51.786;19.520;2022-10-24T15:12:35;98182.75;;;17.73
60936;BMP280;46804;51.786;19.520;2022-10-24T15:16:38;98178.69;;;17.63
60936;BMP280;46804;51.786;19.520;2022-10-24T15:20:40;98166.88;;;17.50
60936;BMP280;46804;51.786;19.520;2022-10-24T15:24:40;98162.66;;;17.36
60936;BMP280;46804;51.786;19.520;2022-10-24T15:28:52;98165.69;;;17.21
60936;BMP280;46804;51.786;19.520;2022-10-24T15:32:55;98184.13;;;17.01
60936;BMP280;46804;51.786;19.520;2022-10-24T15:36:56;98185.00;;;16.83
60936;BMP280;46804;51.786;19.520;2022-10-24T15:40:57;98180.63;;;16.74
60936;BMP280;46804;51.786;19.520;2022-10-24T15:44:58;98169.00;;;16.65
60936;BMP280;46804;51.786;19.520;2022-10-24T15:48:58;98169.91;;;16.61
60936;BMP280;46804;51.786;19.520;2022-10-24T15:53:01;98180.25;;;16.54
60936;BMP280;46804;51.786;19.520;2022-10-24T15:57:01;98177.44;;;16.45
60936;BMP280;46804;51.786;19.520;2022-10-24T16:01:02;98171.19;;;16.36
60936;BMP280;46804;51.786;19.520;2022-10-24T16:05:03;98177.22;;;16.29
60936;BMP280;46804;51.786;19.520;2022-10-24T16:09:08;98180.38;;;16.17
60936;BMP280;46804;51.786;19.520;2022-10-24T16:13:12;98190.19;;;16.08
60936;BMP280;46804;51.786;19.520;2022-10-24T16:17:14;98186.34;;;15.96
60936;BMP280;46804;51.786;19.520;2022-10-24T16:21:17;98189.41;;;15.90
60936;BMP280;46804;51.786;19.520;2022-10-24T16:25:25;98180.84;;;15.88
60936;BMP280;46804;51.786;19.520;2022-10-24T16:29:26;98184.81;;;15.77
60936;BMP280;46804;51.786;19.520;2022-10-24T16:33:26;98188.59;;;15.76
60936;BMP280;46804;51.786;19.520;2022-10-24T16:37:27;98193.88;;;15.63
60936;BMP280;46804;51.786;19.520;2022-10-24T16:41:27;98201.28;;;15.52
60936;BMP280;46804;51.786;19.520;2022-10-24T16:45:28;98196.50;;;15.49
60936;BMP280;46804;51.786;19.520;2022-10-24T16:49:28;98200.06;;;15.45
60936;BMP280;46804;51.786;19.520;2022-10-24T16:53:30;98190.50;;;15.39
60936;BMP280;46804;51.786;19.520;2022-10-24T16:57:31;98195.16;;;15.33
60936;BMP280;46804;51.786;19.520;2022-10-24T17:01:31;98188.53;;;15.26
60936;BMP280;46804;51.786;19.520;2022-10-24T17:05:32;98184.47;;;15.28
60936;BMP280;46804;51.786;19.520;2022-10-24T17:09:32;98179.94;;;15.29
60936;BMP280;46804;51.786;19.520;2022-10-24T17:13:33;98190.19;;;15.22
60936;BMP280;46804;51.786;19.520;2022-10-24T17:17:33;98187.00;;;15.20
60936;BMP280;46804;51.786;19.520;2022-10-24T17:21:34;98193.75;;;15.18
60936;BMP280;46804;51.786;19.520;2022-10-24T17:25:36;98199.44;;;15.11
60936;BMP280;46804;51.786;19.520;2022-10-24T17:29:37;98198.44;;;15.07
60936;BMP280;46804;51.786;19.520;2022-10-24T17:33:37;98200.38;;;15.02
60936;BMP280;46804;51.786;19.520;2022-10-24T17:41:43;98200.50;;;14.92
60936;BMP280;46804;51.786;19.520;2022-10-24T17:45:44;98189.56;;;14.89
60936;BMP280;46804;51.786;19.520;2022-10-24T17:49:44;98195.16;;;14.92
60936;BMP280;46804;51.786;19.520;2022-10-24T17:53:45;98182.03;;;14.91
60936;BMP280;46804;51.786;19.520;2022-10-24T17:57:45;98177.75;;;14.90
60936;BMP280;46804;51.786;19.520;2022-10-24T18:01:47;98181.88;;;14.82
60936;BMP280;46804;51.786;19.520;2022-10-24T18:05:47;98182.44;;;14.79
60936;BMP280;46804;51.786;19.520;2022-10-24T18:09:48;98180.03;;;14.78
60936;BMP280;46804;51.786;19.520;2022-10-24T18:13:49;98192.41;;;14.74
60936;BMP280;46804;51.786;19.520;2022-10-24T18:17:49;98197.56;;;14.70
60936;BMP280;46804;51.786;19.520;2022-10-24T18:21:49;98198.28;;;14.76
60936;BMP280;46804;51.786;19.520;2022-10-24T18:25:50;98196.38;;;14.76
60936;BMP280;46804;51.786;19.520;2022-10-24T18:29:51;98187.94;;;14.88
60936;BMP280;46804;51.786;19.520;2022-10-24T18:33:52;98193.31;;;14.88
60936;BMP280;46804;51.786;19.520;2022-10-24T18:37:52;98195.41;;;14.91
60936;BMP280;46804;51.786;19.520;2022-10-24T18:42:04;98191.66;;;14.92
60936;BMP280;46804;51.786;19.520;2022-10-24T18:46:09;98204.47;;;14.94
60936;BMP280;46804;51.786;19.520;2022-10-24T18:50:15;98187.09;;;14.92
60936;BMP280;46804;51.786;19.520;2022-10-24T18:54:18;98188.94;;;14.96
60936;BMP280;46804;51.786;19.520;2022-10-24T18:58:19;98193.78;;;14.94
60936;BMP280;46804;51.786;19.520;2022-10-24T19:02:30;98197.97;;;15.00
60936;BMP280;46804;51.786;19.520;2022-10-24T19:06:32;98187.59;;;14.94
60936;BMP280;46804;51.786;19.520;2022-10-24T19:10:34;98187.59;;;14.94
60936;BMP280;46804;51.786;19.520;2022-10-24T19:14:36;98175.03;;;14.94
60936;BMP280;46804;51.786;19.520;2022-10-24T19:18:36;98181.09;;;15.00
60936;BMP280;46804;51.786;19.520;2022-10-24T19:22:37;98163.28;;;15.09
60936;BMP280;46804;51.786;19.520;2022-10-24T19:26:37;98165.94;;;15.14
60936;BMP280;46804;51.786;19.520;2022-10-24T19:30:39;98169.97;;;15.11
60936;BMP280;46804;51.786;19.520;2022-10-24T19:34:41;98176.47;;;15.05
60936;BMP280;46804;51.786;19.520;2022-10-24T19:38:41;98180.16;;;15.09
60936;BMP280;46804;51.786;19.520;2022-10-24T19:42:42;98166.28;;;15.07
60936;BMP280;46804;51.786;19.520;2022-10-24T19:46:42;98182.59;;;15.11
60936;BMP280;46804;51.786;19.520;2022-10-24T19:50:43;98179.66;;;15.07
60936;BMP280;46804;51.786;19.520;2022-10-24T19:54:43;98168.66;;;15.09
60936;BMP280;46804;51.786;19.520;2022-10-24T19:58:44;98170.63;;;15.03
60936;BMP280;46804;51.786;19.520;2022-10-24T20:02:44;98169.00;;;15.02
60936;BMP280;46804;51.786;19.520;2022-10-24T20:06:45;98170.09;;;15.01
60936;BMP280;46804;51.786;19.520;2022-10-24T20:10:51;98165.97;;;14.91
60936;BMP280;46804;51.786;19.520;2022-10-24T20:14:51;98156.31;;;14.90
60936;BMP280;46804;51.786;19.520;2022-10-24T20:18:52;98165.97;;;14.91
60936;BMP280;46804;51.786;19.520;2022-10-24T20:22:53;98166.03;;;14.86
60936;BMP280;46804;51.786;19.520;2022-10-24T20:26:53;98171.53;;;14.94
60936;BMP280;46804;51.786;19.520;2022-10-24T20:30:54;98169.06;;;14.97
60936;BMP280;46804;51.786;19.520;2022-10-24T20:34:55;98177.19;;;14.93
60936;BMP280;46804;51.786;19.520;2022-10-24T20:38:56;98173.22;;;14.90
60936;BMP280;46804;51.786;19.520;2022-10-24T20:43:00;98179.47;;;14.81
60936;BMP280;46804;51.786;19.520;2022-10-24T20:47:06;98180.41;;;14.90
60936;BMP280;46804;51.786;19.520;2022-10-24T20:51:09;98185.91;;;14.80
60936;BMP280;46804;51.786;19.520;2022-10-24T20:55:09;98201.53;;;14.73
60936;BMP280;46804;51.786;19.520;2022-10-24T20:59:11;98204.16;;;14.78
60936;BMP280;46804;51.786;19.520;2022-10-24T21:03:12;98214.25;;;14.86
60936;BMP280;46804;51.786;19.520;2022-10-24T21:07:14;98210.81;;;14.80
60936;BMP280;46804;51.786;19.520;2022-10-24T21:11:17;98220.81;;;14.75
60936;BMP280;46804;51.786;19.520;2022-10-24T21:15:17;98221.88;;;14.74
60936;BMP280;46804;51.786;19.520;2022-10-24T21:19:18;98228.41;;;14.63
60936;BMP280;46804;51.786;19.520;2022-10-24T21:23:18;98227.91;;;14.61
60936;BMP280;46804;51.786;19.520;2022-10-24T21:27:19;98217.72;;;14.63
60936;BMP280;46804;51.786;19.520;2022-10-24T21:31:20;98211.56;;;14.62
60936;BMP280;46804;51.786;19.520;2022-10-24T21:35:21;98225.28;;;14.56
60936;BMP280;46804;51.786;19.520;2022-10-24T21:39:22;98219.41;;;14.54
60936;BMP280;46804;51.786;19.520;2022-10-24T21:43:22;98226.13;;;14.52
60936;BMP280;46804;51.786;19.520;2022-10-24T21:47:23;98224.38;;;14.42
60936;BMP280;46804;51.786;19.520;2022-10-24T21:51:31;98222.34;;;14.29
60936;BMP280;46804;51.786;19.520;2022-10-24T21:55:34;98231.69;;;14.32
60936;BMP280;46804;51.786;19.520;2022-10-24T21:59:35;98228.75;;;14.33
60936;BMP280;46804;51.786;19.520;2022-10-24T22:03:36;98224.72;;;14.31
60936;BMP280;46804;51.786;19.520;2022-10-24T22:07:36;98227.19;;;14.27
60936;BMP280;46804;51.786;19.520;2022-10-24T22:11:37;98232.59;;;14.23
60936;BMP280;46804;51.786;19.520;2022-10-24T22:15:37;98229.94;;;14.23
60936;BMP280;46804;51.786;19.520;2022-10-24T22:19:38;98242.97;;;14.29
60936;BMP280;46804;51.786;19.520;2022-10-24T22:23:38;98234.94;;;14.29
60936;BMP280;46804;51.786;19.520;2022-10-24T22:27:39;98241.09;;;14.29
60936;BMP280;46804;51.786;19.520;2022-10-24T22:31:39;98244.81;;;14.28
60936;BMP280;46804;51.786;19.520;2022-10-24T22:35:40;98237.91;;;14.27
60936;BMP280;46804;51.786;19.520;2022-10-24T22:39:41;98233.59;;;14.26
60936;BMP280;46804;51.786;19.520;2022-10-24T22:43:42;98225.88;;;14.25
60936;BMP280;46804;51.786;19.520;2022-10-24T22:52:02;98224.31;;;14.19
60936;BMP280;46804;51.786;19.520;2022-10-24T22:56:32;98208.78;;;14.21
60936;BMP280;46804;51.786;19.520;2022-10-24T23:00:34;98208.28;;;14.19
60936;BMP280;46804;51.786;19.520;2022-10-24T23:04:45;98208.22;;;14.24
60936;BMP280;46804;51.786;19.520;2022-10-24T23:08:50;98207.38;;;14.28
60936;BMP280;46804;51.786;19.520;2022-10-24T23:12:51;98212.44;;;14.02
60936;BMP280;46804;51.786;19.520;2022-10-24T23:16:56;98216.19;;;13.96
60936;BMP280;46804;51.786;19.520;2022-10-24T23:21:20;98232.63;;;13.85
60936;BMP280;46804;51.786;19.520;2022-10-24T23:25:23;98224.84;;;13.83
60936;BMP280;46804;51.786;19.520;2022-10-24T23:29:28;98230.19;;;13.88
60936;BMP280;46804;51.786;19.520;2022-10-24T23:33:30;98229.94;;;13.85
60936;BMP280;46804;51.786;19.520;2022-10-24T23:37:36;98209.97;;;13.77
60936;BMP280;46804;51.786;19.520;2022-10-24T23:41:37;98219.03;;;13.81
60936;BMP280;46804;51.786;19.520;2022-10-24T23:46:06;98242.78;;;13.88
60936;BMP280;46804;51.786;19.520;2022-10-24T23:50:17;98241.16;;;13.87
60936;BMP280;46804;51.786;19.520;2022-10-24T23:54:24;98241.19;;;13.82
60936;BMP280;46804;51.786;19.520;2022-10-24T23:58:28;98245.75;;;13.81
